Aérodrome :
LOGIN :

S'inscrire | Disclaimer

   EN    FR    IT 

 










Légende :    VFR   VFR Marginal   IFR   IFR Intensif   IFR Très Intensif
Visi : 
Plafond : 
>= 8 km
>= 3000ft
5 à 8 km
1000 à 3000 ft
1500m à 5 km
500 à 1000 ft
800 à 1500m
200 à 500 ft
< 800m
< 200 ft
Symboles :   Orages  Brouillard  Fortes neiges  Fortes précipitations  Vent > 20 kt
SIGMETs :   Divers  Orages  Givrage  Turbulence  Onde Orograph.  Cendres Volcan.






- Altitude de l'aérodrome : 52 ft
- Code IATA : RNN


EKRN - Bornholm Ronne

DERNIER METAR :
  • 300720Z AUTO 32006KT 9999 FEW008/// BKN056/// BKN072/// OVC099/// 02/01 Q1022

METARs EXPIRÉS :
  • 300650Z AUTO 29009KT 9999 -SHSN BKN008/// OVC064/// 02/01 Q1022
  • 300620Z AUTO 31008KT 290V350 7000 -SHRASN OVC008/// 01/01 Q1023
  • 300550Z AUTO 32007KT 9999 BKN015/// BKN085/// BKN110/// 02/01 Q1023
  • 300520Z AUTO 32007KT 4600 -SN OVC014/// 01/00 Q1023
  • 300450Z AUTO 30009KT 270V340 9999 -RA BKN023/// BKN093/// 02/M01 Q1023

TAF TAF EKRN
Valide du 30 à 06h jusqu'au 30 à 15h UTC


300513Z 3006/3015 30012KT 9999 BKN020
TEMPO 3006/3010 2500 -SHSNRA BKN009 BKN020CB
BECMG 3009/3012 04012KT



MET'MAP, la Météo Aéronautique d'un coup d'oeil ! - Copyright ORBIFLY Décembre 2007 - Disclaimer

ORBIFLY MET'MAP TEAM :

Programmation & Développement : Alexandra Zaïnal
Sur une idée originale de : Baudouin d'Aumeries
Assistance à la programmation : Marc-Olivier Méhu
Soutien technique & logistique : Manuel Goepfert

Contact : metmap@orbifly.com




SOURCES & CREDITS :

   NOAA